Time;durP1;ratioP1;P1;durP2;ratioP2;P2;SDS_P1;SDS_P2;PMS_P1;PMS_P2;Temp;Humidity;BMP_temperature;BMP_pressure;BME280_temperature;BME280_humidity;BME280_pressure;Samples;Min_cycle;Max_cycle;Signal;HPM_P1;HPM_P2
2022/04/20 00:01:22;;;;;;;0.52;0.43;;;;;;;24.24;26.23;98304.63;5152807;27;20137;-62
2022/04/20 00:03:48;;;;;;;0.50;0.30;;;;;;;24.14;26.15;98301.56;5152895;27;20467;-62
2022/04/20 00:06:14;;;;;;;0.65;0.40;;;;;;;24.20;26.29;98301.88;5152987;27;20054;-66
2022/04/20 00:08:39;;;;;;;0.80;0.50;;;;;;;24.28;26.06;98303.34;5152847;27;20125;-66
2022/04/20 00:11:05;;;;;;;0.60;0.40;;;;;;;24.22;26.41;98301.47;5152802;27;20505;-66
2022/04/20 00:13:31;;;;;;;0.70;0.50;;;;;;;24.23;26.32;98295.47;5152958;27;20039;-66
2022/04/20 00:15:58;;;;;;;0.57;0.40;;;;;;;24.30;26.03;98294.56;5152824;27;20043;-66
2022/04/20 00:18:23;;;;;;;0.50;0.35;;;;;;;24.28;26.30;98283.78;5152841;27;20107;-64
2022/04/20 00:20:49;;;;;;;0.30;0.30;;;;;;;24.23;26.28;98291.88;5152783;27;20510;-65
2022/04/20 00:23:14;;;;;;;0.32;0.30;;;;;;;24.24;26.30;98297.03;5152907;27;20062;-66
2022/04/20 00:25:40;;;;;;;0.73;0.30;;;;;;;24.21;26.22;98283.13;5153009;27;20035;-62
2022/04/20 00:28:05;;;;;;;0.70;0.40;;;;;;;24.26;26.13;98277.84;5152939;27;20039;-60
2022/04/20 00:30:31;;;;;;;0.80;0.50;;;;;;;24.25;26.27;98286.66;5152729;27;20562;-61
2022/04/20 00:32:56;;;;;;;0.38;0.30;;;;;;;24.23;26.38;98283.50;5152691;27;20043;-61
2022/04/20 00:35:22;;;;;;;0.85;0.40;;;;;;;24.26;26.29;98282.63;5152640;27;20038;-67
2022/04/20 00:37:48;;;;;;;0.90;0.50;;;;;;;24.27;26.16;98282.22;5152536;27;20043;-66
2022/04/20 00:40:14;;;;;;;0.70;0.38;;;;;;;24.30;26.08;98275.00;5152273;27;20039;-67
2022/04/20 00:42:41;;;;;;;0.65;0.43;;;;;;;24.35;26.06;98285.69;5152618;27;20039;-67
2022/04/20 00:45:11;;;;;;;0.55;0.40;;;;;;;24.34;26.08;98281.31;5152481;27;20578;-67
2022/04/20 00:47:44;;;;;;;0.55;0.40;;;;;;;24.41;26.09;98284.00;5152489;27;20046;-66
2022/04/20 00:50:12;;;;;;;0.75;0.40;;;;;;;24.40;26.17;98286.00;5152316;27;20053;-67
2022/04/20 00:52:38;;;;;;;0.63;0.40;;;;;;;24.40;26.12;98279.63;5152094;27;20047;-66
2022/04/20 00:55:05;;;;;;;0.80;0.50;;;;;;;24.39;26.00;98286.44;5152483;27;20537;-66
2022/04/20 00:57:30;;;;;;;0.82;0.50;;;;;;;24.37;26.13;98277.69;5152376;27;20046;-67
2022/04/20 01:00:01;;;;;;;2.33;0.40;;;;;;;24.41;26.24;98289.59;5152213;27;20050;-66
2022/04/20 01:02:27;;;;;;;0.70;0.35;;;;;;;24.35;26.25;98282.91;5152255;27;20506;-66
2022/04/20 01:04:52;;;;;;;0.73;0.40;;;;;;;24.35;26.23;98291.28;5150206;27;20071;-66
2022/04/20 01:07:18;;;;;;;0.75;0.40;;;;;;;24.37;26.34;98300.06;5130764;28;20129;-66
2022/04/20 01:09:45;;;;;;;0.77;0.60;;;;;;;24.38;26.30;98296.84;5131542;28;20096;-67
2022/04/20 01:12:15;;;;;;;1.05;0.70;;;;;;;24.37;26.40;98294.47;5131492;28;20050;-66
2022/04/20 01:14:41;;;;;;;1.02;0.70;;;;;;;24.37;26.25;98294.47;5130612;27;20467;-66
2022/04/20 01:17:07;;;;;;;1.70;0.90;;;;;;;24.38;26.40;98296.03;5131140;28;20717;-61
2022/04/20 01:19:40;;;;;;;1.60;0.80;;;;;;;24.37;26.18;98300.84;5131397;28;20359;-60
2022/04/20 01:22:09;;;;;;;1.42;0.80;;;;;;;24.39;26.32;98292.03;5131189;28;20058;-60
2022/04/20 01:24:37;;;;;;;1.05;0.75;;;;;;;24.39;26.26;98294.81;5131028;28;20125;-61
2022/04/20 01:27:03;;;;;;;1.17;0.77;;;;;;;24.40;26.36;98294.38;5131047;28;20088;-66
2022/04/20 01:29:29;;;;;;;1.80;0.82;;;;;;;24.38;26.40;98290.44;5131056;28;20122;-65
2022/04/20 01:31:56;;;;;;;0.93;0.60;;;;;;;24.39;26.34;98297.63;5127425;28;20048;-67
2022/04/20 01:34:22;;;;;;;1.15;0.63;;;;;;;24.38;26.55;98299.63;5110028;28;20051;-66
2022/04/20 01:36:47;;;;;;;0.82;0.63;;;;;;;24.33;26.31;98299.31;5110570;28;20044;-60
2022/04/20 01:39:13;;;;;;;1.23;0.70;;;;;;;24.26;26.63;98294.59;5110373;28;20048;-61
2022/04/20 01:41:38;;;;;;;1.05;0.70;;;;;;;24.21;26.75;98297.09;5110308;28;20388;-61
2022/04/20 01:44:04;;;;;;;0.95;0.70;;;;;;;24.16;26.83;98299.16;5110339;28;20047;-60
2022/04/20 01:46:30;;;;;;;1.13;0.70;;;;;;;24.13;26.82;98302.00;5110168;28;20110;-60
2022/04/20 01:48:55;;;;;;;0.80;0.55;;;;;;;24.12;26.85;98297.63;5110297;28;20126;-59
2022/04/20 01:54:05;;;;;;;0.98;0.70;;;;;;;24.15;26.87;98299.59;5110419;28;20058;-59
2022/04/20 01:56:30;;;;;;;1.73;0.65;;;;;;;24.10;26.96;98297.28;5110368;28;20473;-60
2022/04/20 01:58:55;;;;;;;1.17;0.70;;;;;;;24.05;26.92;98295.75;5110125;28;20044;-60
2022/04/20 02:04:06;;;;;;;1.05;0.70;;;;;;;24.04;27.18;98293.38;5110069;28;20046;-65
2022/04/20 02:06:31;;;;;;;1.13;0.60;;;;;;;24.05;27.15;98297.75;5110068;28;20070;-60
2022/04/20 02:08:57;;;;;;;0.90;0.60;;;;;;;24.07;27.18;98298.91;5109788;28;20134;-59
2022/04/20 02:11:22;;;;;;;1.23;0.70;;;;;;;24.10;26.93;98297.28;5110012;28;20222;-60
2022/04/20 02:13:48;;;;;;;0.63;0.50;;;;;;;24.09;27.07;98293.69;5109914;28;20048;-60
2022/04/20 02:16:13;;;;;;;1.00;0.60;;;;;;;24.13;26.90;98297.22;5109801;28;20152;-60
2022/04/20 02:18:39;;;;;;;0.60;0.40;;;;;;;24.17;26.89;98299.97;5110068;28;20044;-60
2022/04/20 02:21:04;;;;;;;1.02;0.60;;;;;;;24.14;27.04;98295.19;5109871;28;20107;-60
2022/04/20 02:23:30;;;;;;;2.08;0.80;;;;;;;24.14;27.16;98298.00;5110011;28;20043;-60
2022/04/20 02:25:55;;;;;;;0.90;0.63;;;;;;;24.12;27.08;98292.06;5111588;28;20054;-60
2022/04/20 02:28:21;;;;;;;0.80;0.52;;;;;;;24.11;27.06;98294.06;5113439;28;20414;-60
2022/04/20 02:30:46;;;;;;;1.70;0.82;;;;;;;24.10;27.05;98297.28;5113618;28;20040;-60
2022/04/20 02:33:12;;;;;;;0.70;0.40;;;;;;;24.02;27.12;98295.81;5113452;28;20043;-60
2022/04/20 02:35:39;;;;;;;0.82;0.50;;;;;;;23.97;27.28;98299.09;5113227;28;20047;-61
2022/04/20 02:38:06;;;;;;;0.85;0.55;;;;;;;23.85;27.43;98298.44;5113284;28;20895;-66
2022/04/20 02:40:32;;;;;;;0.68;0.50;;;;;;;23.77;27.65;98296.97;5113113;28;20126;-66
2022/04/20 02:42:57;;;;;;;0.73;0.57;;;;;;;23.73;27.66;98312.22;5113335;28;20524;-67
2022/04/20 02:45:23;;;;;;;0.85;0.52;;;;;;;23.72;27.70;98310.63;5113144;28;20507;-60
2022/04/20 02:47:48;;;;;;;1.00;0.60;;;;;;;23.68;27.78;98302.31;5113057;28;20131;-60
2022/04/20 02:50:14;;;;;;;1.15;0.65;;;;;;;23.64;27.82;98304.34;5113222;28;20031;-60
2022/04/20 02:52:39;;;;;;;0.70;0.40;;;;;;;23.64;27.92;98309.94;5113041;28;20043;-60
2022/04/20 02:55:05;;;;;;;0.90;0.60;;;;;;;23.59;27.89;98304.81;5113004;28;20036;-60
2022/04/20 02:57:31;;;;;;;0.60;0.50;;;;;;;23.60;27.95;98310.00;5113189;28;20411;-60
2022/04/20 02:59:56;;;;;;;1.00;0.55;;;;;;;23.48;28.26;98302.16;5113119;28;20534;-61
2022/04/20 03:02:22;;;;;;;0.82;0.50;;;;;;;23.40;28.30;98311.06;5112962;28;20596;-59
2022/04/20 03:04:47;;;;;;;0.68;0.50;;;;;;;23.32;28.58;98316.72;5112663;28;20499;-60
2022/04/20 03:07:12;;;;;;;0.85;0.50;;;;;;;23.27;28.54;98308.81;5108723;28;20043;-60
2022/04/20 03:09:38;;;;;;;1.27;0.70;;;;;;;23.20;28.81;98311.69;5112754;28;20086;-61
2022/04/20 03:12:04;;;;;;;0.52;0.50;;;;;;;23.15;28.71;98312.19;5112606;28;20051;-60
2022/04/20 03:14:29;;;;;;;0.70;0.47;;;;;;;22.97;29.18;98311.59;5112829;28;20539;-62
2022/04/20 03:16:55;;;;;;;0.63;0.40;;;;;;;22.71;29.49;98307.44;5112513;28;20475;-61
2022/04/20 03:19:20;;;;;;;0.50;0.35;;;;;;;22.54;29.65;98306.44;5112718;28;20079;-61
2022/04/20 03:21:46;;;;;;;0.70;0.50;;;;;;;22.43;29.81;98305.72;5112731;28;20070;-67
2022/04/20 03:24:11;;;;;;;0.52;0.38;;;;;;;22.34;30.15;98305.44;5112594;28;20510;-67
2022/04/20 03:26:36;;;;;;;0.80;0.50;;;;;;;22.29;30.37;98303.06;5112689;28;20043;-62
2022/04/20 03:29:02;;;;;;;0.90;0.50;;;;;;;22.22;30.43;98307.53;5112695;28;20032;-61
2022/04/20 03:31:27;;;;;;;0.40;0.30;;;;;;;22.20;30.16;98314.69;5112351;28;20097;-63
2022/04/20 03:33:52;;;;;;;0.70;0.40;;;;;;;22.15;30.21;98307.59;5112406;28;20040;-62
2022/04/20 03:36:18;;;;;;;0.50;0.40;;;;;;;22.12;30.52;98318.75;5111972;28;20043;-61
2022/04/20 03:38:44;;;;;;;1.02;0.60;;;;;;;22.09;30.41;98305.66;5112195;28;20044;-61
2022/04/20 03:41:09;;;;;;;0.82;0.52;;;;;;;22.07;30.58;98317.16;5112319;28;20403;-61
2022/04/20 03:43:34;;;;;;;0.82;0.47;;;;;;;22.05;30.60;98313.22;5112343;28;20047;-61
2022/04/20 03:46:00;;;;;;;0.73;0.60;;;;;;;22.04;30.83;98317.19;5112446;28;20172;-61
2022/04/20 03:48:26;;;;;;;0.90;0.40;;;;;;;22.04;30.60;98319.97;5112252;28;20051;-61
2022/04/20 03:50:51;;;;;;;0.70;0.50;;;;;;;22.02;30.80;98316.81;5111970;28;20426;-61
2022/04/20 03:53:18;;;;;;;0.68;0.47;;;;;;;22.01;30.77;98318.81;5112107;28;20036;-61
2022/04/20 03:55:44;;;;;;;0.40;0.40;;;;;;;21.99;30.74;98316.41;5112051;28;20047;-61
2022/04/20 03:58:09;;;;;;;0.70;0.40;;;;;;;21.99;30.81;98316.41;5111980;28;20043;-61
2022/04/20 04:00:35;;;;;;;0.57;0.40;;;;;;;21.99;30.74;98312.84;5111832;28;20447;-61
2022/04/20 04:03:00;;;;;;;0.40;0.38;;;;;;;21.99;31.06;98315.63;5124067;28;20047;-62
2022/04/20 04:05:26;;;;;;;0.55;0.45;;;;;;;21.95;30.96;98314.88;5132435;28;20043;-62
2022/04/20 04:07:51;;;;;;;0.52;0.40;;;;;;;21.95;31.09;98321.25;5132477;28;20050;-67
2022/04/20 04:10:18;;;;;;;0.75;0.50;;;;;;;21.95;30.83;98326.03;5132469;28;20406;-67
2022/04/20 04:12:44;;;;;;;0.32;0.30;;;;;;;21.94;30.94;98327.22;5132499;28;20062;-67
2022/04/20 04:15:09;;;;;;;0.60;0.47;;;;;;;21.94;30.78;98335.56;5132328;28;20521;-67
2022/04/20 04:17:35;;;;;;;0.65;0.38;;;;;;;21.93;30.67;98328.41;5132175;28;20039;-67
2022/04/20 04:20:00;;;;;;;0.98;0.50;;;;;;;21.92;30.87;98324.81;5132253;28;20514;-67
2022/04/20 04:22:26;;;;;;;0.90;0.43;;;;;;;21.91;30.88;98326.03;5132182;28;20047;-67
2022/04/20 04:24:52;;;;;;;0.68;0.47;;;;;;;21.91;30.76;98328.81;5132261;28;20459;-62
2022/04/20 04:27:17;;;;;;;0.50;0.50;;;;;;;21.89;30.97;98331.22;5132231;28;20051;-61
2022/04/20 04:29:43;;;;;;;0.57;0.43;;;;;;;21.89;30.81;98333.22;5132013;28;20142;-66
2022/04/20 04:32:08;;;;;;;2.85;0.68;;;;;;;21.89;30.81;98333.22;5131920;28;20054;-67
2022/04/20 04:34:34;;;;;;;1.10;0.68;;;;;;;21.88;31.10;98328.84;5131990;28;20069;-62
2022/04/20 04:37:00;;;;;;;1.00;0.57;;;;;;;21.87;30.90;98336.41;5131873;28;20047;-62
2022/04/20 04:39:28;;;;;;;0.85;0.60;;;;;;;21.88;31.21;98335.22;5131899;28;20043;-62
2022/04/20 04:41:56;;;;;;;1.40;0.70;;;;;;;21.88;31.19;98340.00;5131865;28;20047;-61
2022/04/20 04:44:22;;;;;;;0.70;0.50;;;;;;;21.86;31.06;98343.19;5131610;28;20043;-62
2022/04/20 04:49:32;;;;;;;0.63;0.43;;;;;;;21.83;31.31;98335.63;5131108;28;20126;-62
2022/04/20 04:51:59;;;;;;;0.85;0.45;;;;;;;21.84;31.42;98345.56;5131825;28;20129;-61
2022/04/20 04:54:25;;;;;;;0.80;0.50;;;;;;;21.82;31.43;98347.19;5131538;28;20051;-62
2022/04/20 04:56:51;;;;;;;0.80;0.57;;;;;;;21.83;31.30;98349.56;5130719;28;20051;-61
2022/04/20 04:59:18;;;;;;;0.63;0.30;;;;;;;21.84;31.20;98345.56;5131644;28;20039;-67
2022/04/20 05:01:43;;;;;;;0.57;0.45;;;;;;;21.85;31.27;98354.69;5131703;28;20525;-67
2022/04/20 05:04:09;;;;;;;1.40;0.63;;;;;;;21.85;31.62;98354.69;5131476;28;20047;-62
2022/04/20 05:06:35;;;;;;;0.98;0.43;;;;;;;21.84;31.56;98362.25;5131491;28;20032;-62
2022/04/20 05:09:00;;;;;;;0.70;0.50;;;;;;;21.84;31.62;98367.84;5131346;28;20430;-67
2022/04/20 05:11:26;;;;;;;0.75;0.40;;;;;;;21.86;31.57;98367.41;5131537;28;20043;-67
2022/04/20 05:13:51;;;;;;;0.43;0.30;;;;;;;21.85;31.39;98374.19;5131289;28;20047;-67
2022/04/20 05:16:17;;;;;;;0.93;0.50;;;;;;;21.85;31.57;98363.84;5131237;28;20047;-67
2022/04/20 05:18:42;;;;;;;0.50;0.40;;;;;;;21.86;31.50;98365.47;5131348;28;20043;-67
2022/04/20 05:21:07;;;;;;;0.70;0.47;;;;;;;21.87;31.72;98367.03;5131282;28;20063;-67
2022/04/20 05:23:33;;;;;;;1.10;0.60;;;;;;;21.86;31.53;98375.78;5130455;28;20035;-67
2022/04/20 05:25:58;;;;;;;0.70;0.40;;;;;;;21.86;31.56;98371.03;5131194;28;20058;-67
2022/04/20 05:28:24;;;;;;;0.65;0.40;;;;;;;21.85;31.83;98363.84;5131007;28;20046;-67
2022/04/20 05:30:49;;;;;;;0.52;0.40;;;;;;;21.86;31.73;98362.66;5131306;28;20051;-67
2022/04/20 05:33:14;;;;;;;0.73;0.57;;;;;;;21.87;31.66;98358.69;5130917;28;20390;-62
2022/04/20 05:35:40;;;;;;;0.85;0.50;;;;;;;21.86;31.75;98365.47;5130974;28;20464;-67
2022/04/20 05:43:34;;;;;;;0.70;0.50;;;;;;;21.89;32.16;98352.69;5128500;28;20054;-71
2022/04/20 05:45:59;;;;;;;3.92;0.50;;;;;;;21.92;32.33;98361.00;5130871;28;20039;-69
2022/04/20 05:48:25;;;;;;;4.85;0.55;;;;;;;21.90;32.15;98357.84;5130767;28;20046;-69
2022/04/20 05:50:50;;;;;;;1.25;0.60;;;;;;;21.92;32.39;98361.00;5130773;28;20136;-69
2022/04/20 05:53:16;;;;;;;1.88;0.80;;;;;;;21.93;32.36;98362.63;5130730;28;20455;-70
2022/04/20 05:55:42;;;;;;;2.75;0.57;;;;;;;21.92;32.21;98354.66;5130627;28;20054;-70
2022/04/20 05:58:07;;;;;;;1.10;0.50;;;;;;;21.91;32.26;98362.22;5130687;28;20051;-69
2022/04/20 06:00:33;;;;;;;1.88;0.60;;;;;;;21.92;32.53;98363.00;5130648;27;20406;-69
2022/04/20 06:02:58;;;;;;;1.52;0.60;;;;;;;21.91;32.44;98367.78;5130599;28;20039;-61
2022/04/20 06:05:24;;;;;;;0.80;0.50;;;;;;;21.93;32.38;98367.38;5130497;28;20409;-61
2022/04/20 06:07:49;;;;;;;0.73;0.50;;;;;;;21.90;32.33;98363.44;5130552;28;20054;-60
2022/04/20 06:10:15;;;;;;;4.38;0.60;;;;;;;21.89;32.66;98361.84;5130123;28;20043;-60
2022/04/20 06:12:41;;;;;;;0.85;0.50;;;;;;;21.91;32.47;98373.34;5130419;28;20051;-60
2022/04/20 06:15:07;;;;;;;1.33;0.52;;;;;;;21.92;32.40;98368.56;5130361;28;20491;-60
2022/04/20 06:17:33;;;;;;;1.13;0.60;;;;;;;21.91;32.37;98373.34;5130475;28;20047;-60
2022/04/20 06:19:59;;;;;;;1.75;0.50;;;;;;;21.85;32.42;98358.28;5130482;28;20448;-60
2022/04/20 06:22:24;;;;;;;2.67;0.50;;;;;;;21.92;32.55;98366.59;5130379;28;20054;-60
2022/04/20 06:24:50;;;;;;;1.08;0.70;;;;;;;21.93;32.56;98370.97;5126259;28;20483;-60
2022/04/20 06:27:16;;;;;;;1.20;0.60;;;;;;;21.94;32.27;98360.63;5109192;28;20101;-60
2022/04/20 06:29:42;;;;;;;0.88;0.50;;;;;;;21.94;32.47;98363.41;5109524;28;20419;-60
2022/04/20 06:32:08;;;;;;;1.08;0.50;;;;;;;21.93;32.28;98359.84;5109745;28;20104;-60
2022/04/20 06:34:33;;;;;;;1.75;0.60;;;;;;;21.93;32.24;98367.38;5109659;28;20091;-60
2022/04/20 06:36:59;;;;;;;0.68;0.50;;;;;;;21.93;32.67;98362.63;5109527;28;20044;-60
2022/04/20 06:39:24;;;;;;;0.50;0.43;;;;;;;21.92;32.48;98361.00;5109721;28;20039;-60
2022/04/20 06:41:51;;;;;;;1.10;0.60;;;;;;;21.92;32.55;98363.81;5109472;28;20043;-60
2022/04/20 06:44:17;;;;;;;1.55;0.68;;;;;;;21.91;32.22;98370.56;5109325;28;20063;-61
2022/04/20 06:46:43;;;;;;;0.93;0.70;;;;;;;21.93;32.47;98370.97;5109417;28;20117;-69
2022/04/20 06:49:08;;;;;;;1.05;0.60;;;;;;;21.93;32.24;98370.16;5109540;28;20067;-70
2022/04/20 06:58:31;;;;;;;1.15;0.60;;;;;;;21.91;32.28;98376.13;5109576;28;20089;-70
2022/04/20 06:59:50;;;;;;;2.13;0.65;;;;;;;21.98;33.37;98364.16;5110142;27;20539;-72
2022/04/20 07:02:15;;;;;;;0.73;0.50;;;;;;;21.99;32.98;98362.97;5124394;27;20070;-64
2022/04/20 07:04:41;;;;;;;1.42;0.68;;;;;;;21.99;33.21;98349.81;5121502;27;20394;-70
2022/04/20 07:07:06;;;;;;;1.98;0.60;;;;;;;22.02;33.42;98353.03;5118811;27;20036;-70
2022/04/20 07:09:32;;;;;;;1.35;0.70;;;;;;;22.03;33.02;98354.59;5108581;27;20054;-66
2022/04/20 07:11:57;;;;;;;1.77;0.50;;;;;;;22.05;33.09;98357.75;5121781;27;20047;-69
2022/04/20 07:14:22;;;;;;;6.15;0.70;;;;;;;22.06;33.28;98357.34;5128958;28;20460;-68
2022/04/20 07:16:48;;;;;;;0.82;0.60;;;;;;;22.06;33.25;98348.19;5122278;27;20046;-68
2022/04/20 07:19:13;;;;;;;1.25;0.60;;;;;;;22.07;33.25;98347.78;5110066;28;20074;-67
2022/04/20 07:21:39;;;;;;;2.78;0.60;;;;;;;22.09;32.98;98344.66;5127681;27;20451;-67
2022/04/20 07:24:05;;;;;;;1.20;0.60;;;;;;;22.10;33.05;98335.09;5116953;27;20047;-69
2022/04/20 07:26:30;;;;;;;0.80;0.47;;;;;;;22.11;33.05;98328.31;5128354;27;20047;-68
2022/04/20 07:28:55;;;;;;;1.17;0.70;;;;;;;22.11;33.35;98328.31;5130857;28;20035;-74
2022/04/20 07:31:21;;;;;;;1.23;0.57;;;;;;;22.12;33.39;98325.09;5130578;27;20071;-72
2022/04/20 07:33:46;;;;;;;1.35;0.63;;;;;;;22.12;33.28;98327.91;5132282;28;20044;-74
2022/04/20 07:36:12;;;;;;;1.17;0.60;;;;;;;22.15;33.65;98323.50;5126684;27;20039;-69
2022/04/20 07:38:38;;;;;;;1.08;0.68;;;;;;;22.19;33.82;98327.84;5132711;28;20494;-67
2022/04/20 07:41:04;;;;;;;2.28;0.70;;;;;;;22.20;33.68;98320.28;5131717;28;20087;-68
2022/04/20 07:43:29;;;;;;;3.05;0.70;;;;;;;22.20;33.86;98321.06;5125721;27;20039;-68
2022/04/20 07:45:54;;;;;;;1.33;0.60;;;;;;;22.17;33.52;98327.47;5130179;27;20076;-68
2022/04/20 07:48:20;;;;;;;1.67;0.60;;;;;;;22.17;33.49;98321.91;5131826;27;20122;-67
2022/04/20 07:50:46;;;;;;;1.13;0.50;;;;;;;22.18;33.66;98317.13;5108822;28;20038;-60
2022/04/20 07:53:11;;;;;;;2.83;0.60;;;;;;;22.14;33.49;98314.34;5110439;28;20407;-60
2022/04/20 07:55:37;;;;;;;1.42;0.70;;;;;;;22.17;33.67;98318.31;5116210;28;20573;-59
2022/04/20 07:58:03;;;;;;;1.75;0.60;;;;;;;22.16;33.34;98308.38;5119057;27;20518;-62
2022/04/20 08:00:29;;;;;;;1.30;0.70;;;;;;;22.19;33.50;98313.13;5127899;28;20050;-63
2022/04/20 08:03:18;;;;;;;2.05;0.60;;;;;;;22.21;33.22;98305.13;5130955;28;20038;-62
2022/04/20 08:05:50;;;;;;;6.10;0.60;;;;;;;22.22;33.15;98306.75;5131237;28;20118;-59
2022/04/20 08:08:16;;;;;;;1.30;0.63;;;;;;;22.21;33.21;98300.34;5132054;28;20040;-59
2022/04/20 08:10:42;;;;;;;1.35;0.70;;;;;;;22.21;33.26;98303.13;5128050;27;20107;-61
2022/04/20 08:15:51;;;;;;;1.30;0.50;;;;;;;22.22;33.32;98298.38;5127836;27;20468;-70
2022/04/20 08:18:17;;;;;;;2.42;0.60;;;;;;;22.21;33.06;98299.56;5130666;28;20510;-71
2022/04/20 08:20:43;;;;;;;3.92;0.60;;;;;;;22.20;33.34;98296.00;5126922;27;20051;-73
2022/04/20 08:23:08;;;;;;;1.80;0.60;;;;;;;22.20;33.30;98298.00;5130948;27;20031;-67
2022/04/20 08:25:34;;;;;;;1.02;0.60;;;;;;;22.22;33.29;98295.59;5126432;28;20050;-62
2022/04/20 08:27:59;;;;;;;1.85;0.65;;;;;;;22.25;32.95;98291.97;5128554;27;20398;-59
2022/04/20 08:30:25;;;;;;;1.00;0.60;;;;;;;22.24;33.15;98293.19;5130370;27;20130;-67
2022/04/20 08:32:50;;;;;;;0.60;0.40;;;;;;;22.24;33.01;98293.19;5128505;28;20138;-67
2022/04/20 08:35:16;;;;;;;1.02;0.57;;;;;;;22.26;32.92;98299.13;5130501;27;20383;-68
2022/04/20 08:37:42;;;;;;;0.77;0.50;;;;;;;22.25;32.76;98298.34;5130063;28;20035;-61
2022/04/20 08:40:07;;;;;;;0.98;0.60;;;;;;;22.28;33.04;98293.16;5115500;28;20039;-58
2022/04/20 08:42:34;;;;;;;1.67;0.50;;;;;;;22.29;33.02;98292.75;5110688;27;20188;-58
2022/04/20 08:45:03;;;;;;;0.60;0.45;;;;;;;22.32;33.27;98293.91;5110401;27;20418;-61
2022/04/20 08:47:34;;;;;;;1.10;0.57;;;;;;;22.32;33.22;98282.78;5110583;27;20040;-61
2022/04/20 08:50:01;;;;;;;1.00;0.52;;;;;;;22.32;33.17;98278.00;5110464;27;20050;-66
2022/04/20 08:52:37;;;;;;;2.65;0.50;;;;;;;22.34;33.12;98281.16;5110568;28;20817;-61
2022/04/20 08:55:04;;;;;;;1.00;0.57;;;;;;;22.32;33.20;98280.78;5118517;27;20036;-69
2022/04/20 08:57:32;;;;;;;0.90;0.60;;;;;;;22.35;33.05;98279.16;5130610;28;20096;-71
2022/04/20 08:59:58;;;;;;;1.58;0.57;;;;;;;22.35;33.29;98288.28;5120263;27;20123;-58
2022/04/20 09:02:28;;;;;;;0.88;0.50;;;;;;;22.36;33.16;98287.13;5128817;28;20134;-59
2022/04/20 09:04:55;;;;;;;1.25;0.50;;;;;;;22.38;32.94;98281.91;5128162;28;20502;-59
2022/04/20 09:07:20;;;;;;;2.15;0.55;;;;;;;22.40;33.06;98289.84;5127053;28;20131;-61
2022/04/20 09:09:46;;;;;;;0.95;0.50;;;;;;;22.39;33.06;98291.06;5131562;28;20084;-64
2022/04/20 09:12:19;;;;;;;2.40;0.60;;;;;;;22.41;33.04;98297.78;5127453;28;20032;-69
2022/04/20 09:14:48;;;;;;;0.88;0.57;;;;;;;22.40;33.21;98296.22;5129176;28;20043;-67
2022/04/20 09:17:16;;;;;;;0.55;0.50;;;;;;;22.43;33.09;98295.41;5111651;28;20071;-70
2022/04/20 09:19:41;;;;;;;2.55;0.85;;;;;;;22.42;32.85;98291.00;5121352;28;20039;-66
2022/04/20 09:22:17;;;;;;;4.63;0.98;;;;;;;22.42;33.08;98287.44;5128059;28;20612;-69
2022/04/20 09:25:14;;;;;;;1.60;0.80;;;;;;;22.43;32.97;98278.69;5118293;28;20126;-69
2022/04/20 09:27:42;;;;;;;1.65;0.80;;;;;;;22.45;33.04;98270.69;5119238;28;20471;-69
2022/04/20 09:30:15;;;;;;;1.70;0.70;;;;;;;22.44;33.26;98262.75;5120145;28;20047;-68
2022/04/20 09:32:45;;;;;;;1.55;0.80;;;;;;;22.48;33.18;98274.66;5120720;28;20039;-69
2022/04/20 09:35:13;;;;;;;3.53;0.55;;;;;;;22.46;33.01;98255.56;5129367;27;20043;-69
2022/04/20 09:37:39;;;;;;;0.75;0.40;;;;;;;22.50;32.96;98258.28;5120889;28;20518;-67
2022/04/20 09:40:10;;;;;;;0.77;0.50;;;;;;;22.52;32.84;98253.13;5100413;28;20075;-63
2022/04/20 09:42:36;;;;;;;1.05;0.52;;;;;;;22.52;33.14;98248.34;5126417;28;20039;-60
2022/04/20 09:45:04;;;;;;;1.17;0.50;;;;;;;22.52;32.82;98239.97;5127701;28;20134;-61
2022/04/20 09:50:24;;;;;;;1.55;0.77;;;;;;;22.53;32.55;98230.41;5129664;28;20104;-62
2022/04/20 09:52:54;;;;;;;2.33;0.80;;;;;;;22.58;32.58;98234.75;5120649;28;20816;-64
2022/04/20 09:55:29;;;;;;;2.15;0.60;;;;;;;22.58;32.36;98236.75;5123872;28;20052;-61
2022/04/20 09:58:24;;;;;;;2.83;0.70;;;;;;;22.58;31.99;98228.38;5121971;28;20082;-72
2022/04/20 10:00:53;;;;;;;1.70;0.73;;;;;;;22.59;32.25;98225.16;5128555;28;20099;-68
2022/04/20 10:03:33;;;;;;;2.03;0.80;;;;;;;22.59;32.28;98232.75;5111542;28;20039;-69
2022/04/20 10:05:59;;;;;;;1.20;0.60;;;;;;;22.60;32.26;98237.09;5118792;28;20120;-68
2022/04/20 10:08:25;;;;;;;0.85;0.50;;;;;;;22.62;32.08;98234.69;5118748;28;20047;-66
2022/04/20 10:10:53;;;;;;;2.45;0.60;;;;;;;22.62;31.98;98234.69;5124166;28;20130;-74
2022/04/20 10:13:19;;;;;;;1.38;0.70;;;;;;;22.68;32.11;98233.81;5116836;28;20048;-71
2022/04/20 10:18:33;;;;;;;2.45;0.57;;;;;;;22.67;32.22;98211.94;5121121;28;20526;-74
2022/04/20 10:21:00;;;;;;;2.22;0.60;;;;;;;22.67;32.27;98215.50;5125511;28;20051;-77
2022/04/20 10:23:29;;;;;;;2.42;0.70;;;;;;;22.69;31.92;98204.72;5118279;28;20031;-74
2022/04/20 10:25:56;;;;;;;1.63;0.63;;;;;;;22.70;32.04;98205.53;5122767;28;20116;-74
2022/04/20 10:28:49;;;;;;;1.10;0.50;;;;;;;22.73;32.00;98201.91;5114641;28;20055;-75
2022/04/20 10:31:53;;;;;;;1.85;0.65;;;;;;;22.79;32.12;98205.81;5121347;28;20055;-75
2022/04/20 10:34:21;;;;;;;0.95;0.40;;;;;;;22.82;31.74;98198.63;5021461;28;20244;-73
2022/04/20 10:36:58;;;;;;;0.73;0.43;;;;;;;22.84;31.64;98196.97;5022211;28;20076;-74
2022/04/20 10:39:26;;;;;;;1.27;0.68;;;;;;;22.86;31.70;98191.81;5024717;28;20132;-74
2022/04/20 10:42:17;;;;;;;1.23;0.60;;;;;;;22.87;31.68;98196.19;5011060;28;20073;-59
2022/04/20 10:45:08;;;;;;;1.25;0.63;;;;;;;22.90;31.57;98195.34;5023521;28;20057;-60
2022/04/20 10:47:45;;;;;;;1.08;0.57;;;;;;;22.90;31.48;98177.81;5023249;28;20084;-59
2022/04/20 10:50:27;;;;;;;1.35;0.68;;;;;;;22.90;31.59;98184.19;5026403;28;20046;-59
2022/04/20 10:53:01;;;;;;;0.90;0.60;;;;;;;22.95;31.55;98191.31;5026578;28;20041;-59
2022/04/20 10:55:35;;;;;;;1.00;0.70;;;;;;;22.95;31.40;98192.09;5025189;28;20543;-75
2022/04/20 10:58:15;;;;;;;1.35;0.70;;;;;;;22.99;31.47;98186.47;5025899;28;20111;-75
2022/04/20 11:00:41;;;;;;;0.85;0.60;;;;;;;23.00;31.36;98188.03;5016352;28;20120;-59
2022/04/20 11:03:10;;;;;;;1.00;0.50;;;;;;;23.00;31.56;98180.47;5025127;28;20064;-75
2022/04/20 11:05:49;;;;;;;0.82;0.60;;;;;;;23.04;31.47;98172.84;5022361;28;20345;-60
2022/04/20 11:08:15;;;;;;;1.05;0.70;;;;;;;23.04;31.21;98175.63;5026737;28;20042;-60
2022/04/20 11:19:50;;;;;;;1.38;0.70;;;;;;;23.08;31.27;98167.22;5120689;28;20519;-74
2022/04/20 11:22:15;;;;;;;0.88;0.50;;;;;;;23.09;31.14;98170.81;5106568;28;20065;-74
2022/04/20 11:24:41;;;;;;;1.02;0.52;;;;;;;23.10;31.27;98158.44;5124647;28;20502;-75
2022/04/20 11:27:08;;;;;;;0.95;0.52;;;;;;;23.11;31.37;98154.44;5122979;28;20046;-61
2022/04/20 11:29:34;;;;;;;0.73;0.50;;;;;;;23.11;31.25;98154.44;5116644;28;20050;-60
2022/04/20 11:32:02;;;;;;;1.25;0.52;;;;;;;23.10;31.16;98150.06;5125476;28;20043;-60
2022/04/20 11:34:31;;;;;;;0.75;0.55;;;;;;;23.09;31.14;98154.06;5127586;28;20057;-60
2022/04/20 11:37:00;;;;;;;1.05;0.60;;;;;;;23.08;31.19;98146.91;5120994;28;20042;-60
2022/04/20 11:39:27;;;;;;;1.60;0.50;;;;;;;23.07;31.04;98143.31;5123617;28;20047;-60
2022/04/20 11:41:55;;;;;;;0.55;0.40;;;;;;;23.08;31.18;98147.69;5123195;28;20118;-60
2022/04/20 11:44:40;;;;;;;2.65;0.60;;;;;;;23.08;31.22;98147.69;5125164;28;20046;-74
2022/04/20 11:47:08;;;;;;;2.40;0.50;;;;;;;23.06;31.23;98141.72;5124038;28;20034;-73
2022/04/20 11:49:37;;;;;;;0.73;0.45;;;;;;;23.04;31.25;98139.38;5125095;28;20050;-74
2022/04/20 11:52:07;;;;;;;0.50;0.40;;;;;;;23.01;31.36;98137.44;5125446;28;20333;-59
2022/04/20 11:54:34;;;;;;;0.80;0.50;;;;;;;23.02;31.30;98146.59;5125165;28;20050;-59
2022/04/20 11:57:00;;;;;;;1.00;0.55;;;;;;;23.02;31.40;98146.59;5123802;27;20070;-59
2022/04/20 11:59:27;;;;;;;0.77;0.60;;;;;;;23.02;31.22;98143.81;5123702;28;20421;-59
2022/04/20 12:01:53;;;;;;;1.05;0.40;;;;;;;23.00;31.36;98144.22;5126706;28;20603;-59
2022/04/20 12:04:27;;;;;;;0.85;0.50;;;;;;;22.99;31.43;98148.19;5120633;28;20043;-59
2022/04/20 12:06:52;;;;;;;0.45;0.40;;;;;;;22.99;31.27;98144.63;5120760;28;20035;-59
2022/04/20 12:09:22;;;;;;;0.90;0.50;;;;;;;23.02;31.11;98141.81;5124608;28;20146;-59
2022/04/20 12:11:54;;;;;;;1.17;0.57;;;;;;;23.04;31.14;98133.78;5122614;28;20973;-59